Time;durP1;ratioP1;P1;durP2;ratioP2;P2;SDS_P1;SDS_P2;PMS_P1;PMS_P2;Temp;Humidity;BMP_temperature;BMP_pressure;BME280_temperature;BME280_humidity;BME280_pressure;Samples;Min_cycle;Max_cycle;Signal;HPM_P1;HPM_P2
2022/07/21 00:00:07;;;;;;;14.30;12.82;;;;;;;21.34;70.49;101127.00;675433;29;1261;-96
2022/07/21 00:00:28;;;;;;;14.55;13.02;;;;;;;21.41;70.46;101133.16;672365;29;1265;-94
2022/07/21 00:00:49;;;;;;;15.40;12.90;;;;;;;21.32;70.47;101123.50;670377;29;1330;-93
2022/07/21 00:01:09;;;;;;;14.85;12.88;;;;;;;21.36;70.41;101129.66;665236;29;1165;-93
2022/07/21 00:01:30;;;;;;;13.97;12.50;;;;;;;21.33;70.53;101121.72;662867;29;1933;-91
2022/07/21 00:01:53;;;;;;;13.65;12.25;;;;;;;21.39;70.60;101128.75;670178;29;1316;-93
2022/07/21 00:02:13;;;;;;;14.43;12.18;;;;;;;21.33;70.44;101119.09;667613;29;1214;-93
2022/07/21 00:02:34;;;;;;;15.17;12.57;;;;;;;21.34;70.41;101124.34;664979;29;1239;-93
2022/07/21 00:02:56;;;;;;;15.05;12.90;;;;;;;21.32;70.60;101122.59;670441;29;1330;-93
2022/07/21 00:03:17;;;;;;;16.00;13.32;;;;;;;21.32;70.50;101120.84;665095;29;1999;-92
2022/07/21 00:03:38;;;;;;;15.35;12.85;;;;;;;21.32;70.55;101118.19;664825;29;1309;-92
2022/07/21 00:03:58;;;;;;;14.50;12.75;;;;;;;21.33;70.30;101117.28;665239;29;1213;-91
2022/07/21 00:04:21;;;;;;;13.93;12.50;;;;;;;21.34;70.51;101121.69;665109;29;1106;-94
2022/07/21 00:04:41;;;;;;;15.63;13.10;;;;;;;21.32;70.61;101118.19;666604;29;1274;-95
2022/07/21 00:05:02;;;;;;;17.17;13.70;;;;;;;21.29;70.53;101115.59;667690;29;1259;-95
2022/07/21 00:05:24;;;;;;;16.48;13.60;;;;;;;21.34;70.70;101126.16;672127;29;1573;-95
2022/07/21 00:05:44;;;;;;;16.42;13.50;;;;;;;21.33;70.62;101116.44;665240;29;1264;-96
2022/07/21 00:06:06;;;;;;;15.30;12.83;;;;;;;21.31;70.51;101116.44;672567;29;1156;-94
2022/07/21 00:06:26;;;;;;;15.93;13.10;;;;;;;21.30;70.51;101119.09;667643;29;1768;-93
2022/07/21 00:06:47;;;;;;;14.23;12.77;;;;;;;21.30;70.58;101114.69;670956;29;1182;-94
2022/07/21 00:07:08;;;;;;;15.40;13.20;;;;;;;21.32;70.62;101114.63;667606;29;1765;-95
2022/07/21 00:07:29;;;;;;;15.20;12.80;;;;;;;21.29;70.48;101118.22;670011;29;1227;-96
2022/07/21 00:07:51;;;;;;;17.67;13.68;;;;;;;21.30;70.59;101117.34;667561;29;1217;-95
2022/07/21 00:08:13;;;;;;;16.00;13.70;;;;;;;21.31;70.57;101115.53;666820;29;1665;-95
2022/07/21 00:08:33;;;;;;;15.25;13.63;;;;;;;21.30;70.69;101113.78;668404;29;1260;-95
2022/07/21 00:08:54;;;;;;;15.07;13.47;;;;;;;21.31;70.89;101113.78;667139;29;1297;-95
2022/07/21 00:09:14;;;;;;;15.48;13.77;;;;;;;21.31;70.65;101115.53;670286;29;1691;-95
2022/07/21 00:09:35;;;;;;;15.60;13.90;;;;;;;21.28;70.78;101111.19;665973;29;1374;-94
2022/07/21 00:09:58;;;;;;;15.10;13.50;;;;;;;21.29;70.87;101114.69;672616;29;2033;-96
2022/07/21 00:10:24;;;;;;;14.98;13.02;;;;;;;21.29;70.82;101106.72;672657;29;1340;-96
2022/07/21 00:10:44;;;;;;;15.95;13.05;;;;;;;21.26;70.73;101099.66;669479;29;1478;-94
2022/07/21 00:11:06;;;;;;;15.63;12.98;;;;;;;21.30;70.89;101109.38;671458;29;1417;-95
2022/07/21 00:11:48;;;;;;;14.70;13.15;;;;;;;21.32;70.73;101115.53;667355;29;1606;-95
2022/07/21 00:12:09;;;;;;;15.65;13.60;;;;;;;21.29;70.75;101107.63;675135;29;1188;-95
2022/07/21 00:12:29;;;;;;;17.00;13.80;;;;;;;21.30;70.69;101104.06;669710;29;1658;-95
2022/07/21 00:12:51;;;;;;;16.17;13.57;;;;;;;21.27;70.67;101098.78;662818;29;2040;-94
2022/07/21 00:13:12;;;;;;;15.23;13.60;;;;;;;21.27;70.60;101101.44;669940;29;1360;-94
2022/07/21 00:13:33;;;;;;;14.70;13.20;;;;;;;21.29;70.79;101102.31;668809;29;1161;-96
2022/07/21 00:13:53;;;;;;;15.02;13.32;;;;;;;21.30;70.72;101097.88;667580;29;1497;-95
2022/07/21 00:14:14;;;;;;;14.73;13.00;;;;;;;21.28;70.61;101100.56;667258;29;1609;-95
2022/07/21 00:14:35;;;;;;;14.77;13.07;;;;;;;21.31;70.76;101104.94;667647;29;1263;-96
2022/07/21 00:14:55;;;;;;;14.50;13.00;;;;;;;21.29;70.66;101104.06;667761;29;1129;-93
2022/07/21 00:15:18;;;;;;;14.30;12.80;;;;;;;21.29;70.58;101101.41;675259;29;1323;-93
2022/07/21 00:15:39;;;;;;;14.38;12.88;;;;;;;21.29;70.53;101112.94;667613;29;1336;-93
2022/07/21 00:16:00;;;;;;;14.10;12.67;;;;;;;21.27;70.65;101097.91;662746;29;1361;-92
2022/07/21 00:16:21;;;;;;;14.38;12.80;;;;;;;21.26;70.57;101102.31;667644;29;1245;-91
2022/07/21 00:16:42;;;;;;;15.68;13.45;;;;;;;21.27;70.52;101103.22;665382;29;1268;-93
2022/07/21 00:17:03;;;;;;;17.25;14.23;;;;;;;21.28;70.43;101103.22;670441;29;1468;-94
2022/07/21 00:17:24;;;;;;;16.65;14.20;;;;;;;21.25;70.66;101105.88;675226;29;1208;-92
2022/07/21 00:17:44;;;;;;;15.40;13.73;;;;;;;21.24;70.44;101117.41;667808;29;1129;-91
2022/07/21 00:18:06;;;;;;;15.43;13.75;;;;;;;21.25;70.50;101108.53;669962;29;1091;-92
2022/07/21 00:18:28;;;;;;;15.20;13.57;;;;;;;21.23;70.65;101099.72;664517;29;1757;-93
2022/07/21 00:18:48;;;;;;;15.02;13.35;;;;;;;21.22;70.65;101103.28;669865;29;1303;-92
2022/07/21 00:19:09;;;;;;;15.10;13.10;;;;;;;21.28;70.57;101105.88;670151;29;1466;-91
2022/07/21 00:19:30;;;;;;;15.43;13.55;;;;;;;21.29;70.54;101112.94;664166;29;1192;-92
2022/07/21 00:19:51;;;;;;;15.68;13.63;;;;;;;21.24;70.46;101098.81;662319;29;1359;-91
2022/07/21 00:20:13;;;;;;;16.98;14.15;;;;;;;21.26;70.38;101097.03;660496;29;1603;-93
2022/07/21 00:20:34;;;;;;;16.40;14.13;;;;;;;21.27;70.38;101097.91;668679;29;1267;-92
2022/07/21 00:20:56;;;;;;;16.13;14.30;;;;;;;21.30;70.59;101100.53;670806;29;1935;-91
2022/07/21 00:21:17;;;;;;;16.17;14.50;;;;;;;21.31;70.26;101104.94;670029;29;1273;-91
2022/07/21 00:21:38;;;;;;;15.73;14.03;;;;;;;21.31;70.14;101110.22;675586;29;1885;-92
2022/07/21 00:21:58;;;;;;;16.95;14.15;;;;;;;21.27;70.37;101103.22;670180;29;1180;-94
2022/07/21 00:22:19;;;;;;;17.23;14.45;;;;;;;21.27;70.26;101104.09;670250;29;1183;-93
2022/07/21 00:22:40;;;;;;;16.85;14.40;;;;;;;21.28;70.29;101103.22;670005;29;1258;-93
2022/07/21 00:23:01;;;;;;;15.95;14.25;;;;;;;21.28;70.07;101095.25;667504;29;1693;-95
2022/07/21 00:23:23;;;;;;;16.40;13.93;;;;;;;21.22;70.33;101087.34;667335;29;1772;-92
2022/07/21 00:23:44;;;;;;;16.58;13.98;;;;;;;21.29;70.32;101104.97;669513;29;1388;-92
2022/07/21 00:24:05;;;;;;;18.10;14.20;;;;;;;21.28;70.37;101097.00;672659;29;1154;-92
2022/07/21 00:24:25;;;;;;;19.10;14.67;;;;;;;21.31;70.42;101099.63;664609;29;1534;-93
2022/07/21 00:24:46;;;;;;;19.38;15.00;;;;;;;21.27;70.41;101090.81;667863;29;1174;-95
2022/07/21 00:25:08;;;;;;;17.15;14.98;;;;;;;21.29;70.34;101099.66;667712;29;1248;-92
2022/07/21 00:25:29;;;;;;;17.90;15.38;;;;;;;21.27;70.58;101088.16;667583;29;1161;-92
2022/07/21 00:25:50;;;;;;;17.80;15.50;;;;;;;21.27;70.48;101092.59;665212;29;1259;-93
2022/07/21 00:26:11;;;;;;;17.83;15.93;;;;;;;21.29;70.49;101094.34;667477;29;1221;-92
2022/07/21 00:26:32;;;;;;;17.30;15.50;;;;;;;21.28;70.45;101089.94;670032;29;1317;-93
2022/07/21 00:26:52;;;;;;;16.93;15.13;;;;;;;21.27;70.40;101093.47;667697;29;1149;-93
2022/07/21 00:27:13;;;;;;;17.50;14.57;;;;;;;21.32;70.54;101106.69;670034;29;1422;-91
2022/07/21 00:27:34;;;;;;;18.67;14.50;;;;;;;21.21;70.42;101082.94;664216;29;1290;-92
2022/07/21 00:27:55;;;;;;;20.92;14.70;;;;;;;21.28;70.34;101087.28;667455;29;1249;-93
2022/07/21 00:28:15;;;;;;;19.00;14.70;;;;;;;21.29;70.49;101097.00;672652;29;1223;-93
2022/07/21 00:28:36;;;;;;;18.08;15.02;;;;;;;21.29;70.52;101090.81;666534;29;1131;-93
2022/07/21 00:28:57;;;;;;;16.85;15.07;;;;;;;21.29;70.33;101091.69;662547;29;1232;-93
2022/07/21 00:29:18;;;;;;;16.90;15.10;;;;;;;21.23;70.62;101081.16;665192;29;1292;-92
2022/07/21 00:29:38;;;;;;;16.07;14.40;;;;;;;21.23;70.54;101082.00;669931;29;1115;-91
2022/07/21 00:29:59;;;;;;;16.83;15.05;;;;;;;21.27;70.71;101087.28;670204;29;1290;-92
2022/07/21 00:30:20;;;;;;;17.30;15.50;;;;;;;21.29;70.37;101094.34;664845;29;1185;-92
2022/07/21 00:30:41;;;;;;;18.17;16.30;;;;;;;21.29;70.46;101097.00;671379;29;1185;-92
2022/07/21 00:31:01;;;;;;;17.57;15.77;;;;;;;21.26;70.71;101097.03;671422;29;1687;-92
2022/07/21 00:31:22;;;;;;;17.08;15.27;;;;;;;21.28;70.65;101095.25;662382;29;1273;-92
2022/07/21 00:31:43;;;;;;;16.48;14.65;;;;;;;21.29;70.58;101098.75;665072;29;1352;-92
2022/07/21 00:32:05;;;;;;;17.05;15.07;;;;;;;21.30;70.65;101097.88;665073;29;1274;-91
2022/07/21 00:32:26;;;;;;;18.38;15.75;;;;;;;21.33;70.63;101109.31;666230;29;1321;-93
2022/07/21 00:32:47;;;;;;;18.13;15.77;;;;;;;21.28;70.86;101103.22;672121;29;1347;-91
2022/07/21 00:33:08;;;;;;;17.10;14.90;;;;;;;21.30;70.87;101111.13;677569;29;1317;-91
2022/07/21 00:33:28;;;;;;;16.80;15.00;;;;;;;21.32;70.70;101119.94;671721;29;1395;-91
2022/07/21 00:33:51;;;;;;;16.60;14.80;;;;;;;21.22;70.52;101095.31;672335;29;1230;-92
2022/07/21 00:34:11;;;;;;;16.92;15.20;;;;;;;21.30;70.68;101109.38;667403;29;1375;-92
2022/07/21 00:34:33;;;;;;;16.97;15.27;;;;;;;21.33;70.66;101111.13;667170;29;1733;-92
2022/07/21 00:34:54;;;;;;;17.33;15.63;;;;;;;21.30;70.73;101114.69;664782;29;1440;-91
2022/07/21 00:35:21;;;;;;;17.85;15.95;;;;;;;21.33;70.85;101114.63;664406;29;1669;-92
2022/07/21 00:35:41;;;;;;;19.08;16.85;;;;;;;21.31;70.74;101115.53;667353;29;1551;-91
2022/07/21 00:36:02;;;;;;;19.50;16.77;;;;;;;21.31;70.80;101115.53;667309;29;1226;-91
2022/07/21 00:36:23;;;;;;;18.40;16.50;;;;;;;21.33;70.89;101119.09;664359;29;1663;-92
2022/07/21 00:36:43;;;;;;;17.88;15.98;;;;;;;21.32;70.78;101112.88;669906;29;1161;-92
2022/07/21 00:37:04;;;;;;;18.33;16.43;;;;;;;21.35;70.84;101122.59;670020;29;1213;-92
2022/07/21 00:37:27;;;;;;;18.43;16.33;;;;;;;21.35;70.94;101117.28;665235;29;1827;-92
2022/07/21 00:37:47;;;;;;;18.10;16.20;;;;;;;21.35;70.85;101110.19;669894;29;1232;-91
2022/07/21 00:38:08;;;;;;;17.60;15.73;;;;;;;21.35;70.80;101120.78;670130;29;1200;-92
2022/07/21 00:38:29;;;;;;;17.33;15.50;;;;;;;21.34;70.88;101110.22;667933;29;1958;-92
2022/07/21 00:38:49;;;;;;;17.35;15.55;;;;;;;21.38;70.58;101117.22;667431;29;1149;-92
2022/07/21 00:39:54;;;;;;;17.50;15.70;;;;;;;21.43;70.66;101122.47;666267;29;2128;-91
2022/07/21 00:40:15;;;;;;;17.83;15.85;;;;;;;21.39;70.76;101118.97;666804;29;1488;-91
2022/07/21 00:40:36;;;;;;;18.35;16.20;;;;;;;21.34;70.61;101111.09;666360;29;1728;-92
2022/07/21 00:40:57;;;;;;;18.52;16.63;;;;;;;21.35;70.57;101118.13;669633;29;1525;-91
2022/07/21 00:41:18;;;;;;;18.55;16.55;;;;;;;21.38;70.69;101119.88;669742;29;1125;-91
2022/07/21 00:41:38;;;;;;;17.42;15.63;;;;;;;21.36;70.65;101119.03;665625;29;1903;-91
2022/07/21 00:41:59;;;;;;;16.77;15.00;;;;;;;21.38;70.70;101122.53;662827;29;1135;-91
2022/07/21 00:42:24;;;;;;;16.60;14.90;;;;;;;21.41;70.52;101118.97;672141;29;1281;-92
2022/07/21 00:42:45;;;;;;;17.27;15.38;;;;;;;21.41;70.64;101119.88;669494;29;1360;-90
2022/07/21 00:43:06;;;;;;;16.75;14.95;;;;;;;21.43;70.46;101125.13;666919;29;1788;-91
2022/07/21 00:43:27;;;;;;;16.77;14.80;;;;;;;21.40;70.58;101119.88;662220;29;1040;-91
2022/07/21 00:43:47;;;;;;;16.42;14.73;;;;;;;21.43;70.36;101122.47;667019;29;1355;-91
2022/07/21 00:44:22;;;;;;;17.25;15.35;;;;;;;21.45;70.33;101126.03;669198;29;1164;-90
2022/07/21 00:44:43;;;;;;;17.42;15.60;;;;;;;21.41;70.48;101119.88;670748;29;1721;-91
2022/07/21 00:45:06;;;;;;;17.08;15.27;;;;;;;21.43;70.28;101119.81;667428;29;1705;-91
2022/07/21 00:45:27;;;;;;;17.73;15.85;;;;;;;21.43;70.39;101119.81;666837;29;1863;-91
2022/07/21 00:45:48;;;;;;;17.20;15.40;;;;;;;21.43;70.34;101123.38;667369;29;1239;-91
2022/07/21 00:46:09;;;;;;;16.70;15.00;;;;;;;21.45;70.52;101112.75;672440;29;1193;-92
2022/07/21 00:47:10;;;;;;;16.85;15.15;;;;;;;21.48;70.36;101123.31;667962;29;1566;-92
2022/07/21 00:47:31;;;;;;;17.98;15.98;;;;;;;21.43;70.25;101122.47;667946;29;1616;-91
2022/07/21 00:47:51;;;;;;;17.45;15.65;;;;;;;21.41;70.25;101117.22;664501;29;1720;-92
2022/07/21 00:48:12;;;;;;;17.52;15.68;;;;;;;21.45;70.32;101123.38;667625;29;1227;-92
2022/07/21 00:48:33;;;;;;;17.80;15.90;;;;;;;21.42;70.11;101118.97;667054;29;1097;-91
2022/07/21 00:48:54;;;;;;;18.77;16.40;;;;;;;21.45;70.29;101124.22;664950;29;1516;-92
2022/07/21 00:49:16;;;;;;;19.55;16.52;;;;;;;21.43;70.14;101126.03;666650;29;1969;-90
2022/07/21 00:49:37;;;;;;;20.27;17.20;;;;;;;21.45;69.96;101118.06;672367;29;1787;-91
2022/07/21 00:49:59;;;;;;;19.40;16.40;;;;;;;21.46;70.06;101125.97;671835;29;1303;-91
2022/07/21 00:50:21;;;;;;;19.65;16.20;;;;;;;21.43;70.01;101126.03;663176;29;1603;-90
2022/07/21 00:50:41;;;;;;;19.83;16.13;;;;;;;21.43;70.04;101126.03;668489;29;1113;-91
2022/07/21 00:51:02;;;;;;;18.98;15.98;;;;;;;21.47;70.06;101132.19;668039;29;1657;-91
2022/07/21 00:51:23;;;;;;;19.05;15.80;;;;;;;21.47;70.11;101126.88;669702;29;1141;-92
2022/07/21 00:51:43;;;;;;;20.07;16.00;;;;;;;21.44;70.14;101132.19;668020;29;1294;-91
2022/07/21 00:52:04;;;;;;;19.95;16.20;;;;;;;21.44;70.06;101124.25;669730;29;1203;-91
2022/07/21 00:52:25;;;;;;;19.13;16.00;;;;;;;21.50;70.03;101137.47;667624;29;1832;-92
2022/07/21 00:52:47;;;;;;;18.33;16.08;;;;;;;21.45;70.21;101123.38;671771;29;1291;-91
2022/07/21 00:53:08;;;;;;;19.10;16.55;;;;;;;21.47;70.08;101137.50;669802;29;1286;-92
2022/07/21 00:53:29;;;;;;;18.90;16.90;;;;;;;21.47;70.06;101141.00;665101;29;1694;-93
2022/07/21 00:53:49;;;;;;;19.23;16.55;;;;;;;21.48;70.28;101133.94;671220;29;1538;-91
2022/07/21 00:54:10;;;;;;;19.13;16.10;;;;;;;21.48;70.06;101140.16;668922;29;1682;-90
2022/07/21 00:54:30;;;;;;;18.83;16.40;;;;;;;21.45;70.42;101134.00;666549;29;1433;-90
2022/07/21 00:54:52;;;;;;;19.20;16.60;;;;;;;21.48;70.26;101144.56;668778;29;1491;-90
2022/07/21 00:55:16;;;;;;;19.92;17.05;;;;;;;21.45;70.28;101136.66;669142;29;1849;-91
2022/07/21 00:55:37;;;;;;;20.63;16.88;;;;;;;21.49;70.25;101141.94;671437;29;1699;-92
2022/07/21 00:55:59;;;;;;;19.38;16.70;;;;;;;21.49;70.18;101141.03;664438;29;1242;-91
2022/07/21 00:56:21;;;;;;;17.90;16.05;;;;;;;21.54;70.16;101148.94;668397;29;1692;-90
2022/07/21 00:56:43;;;;;;;17.25;15.55;;;;;;;21.52;70.32;101148.97;674857;29;1720;-92
2022/07/21 00:57:05;;;;;;;18.15;16.27;;;;;;;21.56;70.38;101160.41;667008;29;1198;-90
2022/07/21 00:57:26;;;;;;;19.50;16.90;;;;;;;21.55;70.13;101151.59;668110;29;1578;-91
2022/07/21 00:57:47;;;;;;;20.30;17.40;;;;;;;21.52;70.30;101146.34;668756;29;1174;-92
2022/07/21 00:58:08;;;;;;;19.35;17.15;;;;;;;21.54;70.25;101146.28;664690;29;1281;-91
2022/07/21 00:58:28;;;;;;;19.33;17.30;;;;;;;21.48;70.42;101139.25;663673;29;1759;-92
2022/07/21 00:58:49;;;;;;;19.60;17.50;;;;;;;21.55;70.21;101145.38;664413;29;1229;-92
2022/07/21 00:59:11;;;;;;;19.60;17.50;;;;;;;21.55;70.30;101151.59;669657;29;1168;-90
2022/07/21 00:59:31;;;;;;;19.60;17.50;;;;;;;21.56;70.31;101144.47;665960;29;1936;-91
2022/07/21 00:59:52;;;;;;;19.43;17.30;;;;;;;21.57;70.20;101149.78;666543;29;1380;-91
2022/07/21 01:00:26;;;;;;;20.02;17.02;;;;;;;21.57;70.16;101159.56;664193;29;1720;-91
2022/07/21 01:00:47;;;;;;;18.55;16.40;;;;;;;21.55;70.23;101146.28;666930;29;1256;-91
2022/07/21 01:01:07;;;;;;;18.20;16.30;;;;;;;21.57;70.33;101155.09;666624;29;1961;-91
2022/07/21 01:01:28;;;;;;;18.30;16.27;;;;;;;21.58;70.18;101156.00;671307;29;1771;-91
2022/07/21 01:01:49;;;;;;;18.35;16.20;;;;;;;21.48;70.33;101133.94;666911;29;1956;-91
2022/07/21 01:02:11;;;;;;;18.35;16.20;;;;;;;21.57;70.34;101151.59;667220;29;1177;-91
2022/07/21 01:02:33;;;;;;;18.42;16.40;;;;;;;21.59;70.43;101153.28;668938;29;1926;-90
2022/07/21 01:02:55;;;;;;;21.67;16.92;;;;;;;21.58;70.37;101148.88;669284;29;1664;-92
2022/07/21 01:03:22;;;;;;;21.88;17.10;;;;;;;21.55;70.43;101145.38;668527;29;1612;-91
2022/07/21 01:03:42;;;;;;;20.57;17.40;;;;;;;21.55;70.23;101140.97;664520;29;1710;-91
2022/07/21 01:04:03;;;;;;;19.20;17.20;;;;;;;21.59;70.06;101153.28;664428;29;1155;-92
2022/07/21 01:04:24;;;;;;;19.05;17.15;;;;;;;21.50;70.19;101140.13;663615;29;1732;-91
2022/07/21 01:04:44;;;;;;;19.00;17.10;;;;;;;21.58;70.39;101148.88;670279;29;1192;-91
2022/07/21 01:05:12;;;;;;;19.23;17.30;;;;;;;21.59;70.35;101153.28;669556;29;1649;-92
2022/07/21 01:05:33;;;;;;;18.83;16.75;;;;;;;21.56;70.32;101144.47;667237;29;1540;-91
2022/07/21 01:05:54;;;;;;;18.98;16.60;;;;;;;21.56;70.21;101142.72;664390;29;2019;-90
2022/07/21 01:06:15;;;;;;;18.42;16.42;;;;;;;21.60;70.41;101152.44;669268;29;1641;-91
2022/07/21 01:06:35;;;;;;;18.00;16.10;;;;;;;21.51;70.33;101136.56;663908;29;1175;-90
2022/07/21 01:06:57;;;;;;;18.83;16.30;;;;;;;21.54;70.44;101143.63;659459;30;1270;-90
2022/07/21 01:07:19;;;;;;;20.00;16.88;;;;;;;21.58;70.26;101150.69;664171;29;2054;-91
2022/07/21 01:07:47;;;;;;;23.00;16.95;;;;;;;21.56;70.47;101147.13;668001;29;1722;-92
2022/07/21 01:08:08;;;;;;;20.67;16.05;;;;;;;21.50;70.52;101142.78;668173;29;1325;-91
2022/07/21 01:08:29;;;;;;;18.23;15.93;;;;;;;21.54;70.56;101144.53;668169;29;1676;-90
2022/07/21 01:08:50;;;;;;;18.20;16.30;;;;;;;21.54;70.62;101149.84;666389;29;1641;-90
2022/07/21 01:09:11;;;;;;;18.30;16.40;;;;;;;21.53;70.54;101147.19;664448;29;1480;-92
2022/07/21 01:09:34;;;;;;;17.80;15.90;;;;;;;21.56;70.54;101153.34;662981;29;1564;-91
2022/07/21 01:09:55;;;;;;;16.73;14.93;;;;;;;21.55;70.49;101143.63;664377;29;1329;-91
2022/07/21 01:10:18;;;;;;;16.45;14.60;;;;;;;21.55;70.36;101143.63;662093;29;1587;-89
2022/07/21 01:10:39;;;;;;;16.60;14.27;;;;;;;21.53;70.19;101142.78;664538;29;1780;-90
2022/07/21 01:11:00;;;;;;;16.95;14.55;;;;;;;21.56;70.35;101153.34;659505;29;1233;-91
2022/07/21 01:11:23;;;;;;;17.67;15.10;;;;;;;21.54;70.23;101149.84;663110;29;1893;-91
2022/07/21 01:11:44;;;;;;;17.10;14.80;;;;;;;21.55;70.36;101143.63;667968;29;1838;-91
2022/07/21 01:12:05;;;;;;;16.45;14.65;;;;;;;21.54;70.19;101152.50;668847;29;1665;-92
2022/07/21 01:12:26;;;;;;;15.98;14.27;;;;;;;21.46;70.47;101141.06;669274;29;1318;-92
2022/07/21 01:12:47;;;;;;;16.02;14.32;;;;;;;21.46;70.53;101143.72;669564;29;1140;-90
2022/07/21 01:13:07;;;;;;;16.17;14.35;;;;;;;21.46;70.33;101146.38;670482;29;1724;-90
2022/07/21 01:13:29;;;;;;;15.90;14.20;;;;;;;21.50;70.29;101156.06;668116;29;1174;-90
2022/07/21 01:13:50;;;;;;;15.77;14.07;;;;;;;21.50;70.16;101154.31;667058;29;1287;-91
2022/07/21 01:14:11;;;;;;;16.00;14.32;;;;;;;21.45;70.31;101141.94;667066;29;1279;-90
2022/07/21 01:14:33;;;;;;;18.10;14.95;;;;;;;21.47;70.23;101151.63;666081;29;1973;-90
2022/07/21 01:14:53;;;;;;;17.48;15.02;;;;;;;21.42;69.97;101140.22;669308;29;1649;-91
2022/07/21 01:15:16;;;;;;;16.33;14.40;;;;;;;21.45;70.10;101145.47;666597;29;1785;-89
2022/07/21 01:15:37;;;;;;;15.70;14.10;;;;;;;21.44;69.98;101135.75;665777;29;1511;-90
2022/07/21 01:15:57;;;;;;;15.70;14.10;;;;;;;21.48;70.11;101144.56;670754;29;1659;-90
2022/07/21 01:16:18;;;;;;;15.80;14.10;;;;;;;21.53;69.82;101156.06;669022;29;1735;-91
2022/07/21 01:16:40;;;;;;;15.97;14.00;;;;;;;21.52;69.88;101156.06;667039;29;1629;-92
2022/07/21 01:17:02;;;;;;;15.52;13.73;;;;;;;21.56;69.97;101157.75;666771;29;1295;-93
2022/07/21 01:17:23;;;;;;;15.45;13.85;;;;;;;21.49;69.94;101162.28;665111;29;1588;-92
2022/07/21 01:17:45;;;;;;;15.50;14.00;;;;;;;21.49;69.79;101152.53;665136;29;1686;-93
2022/07/21 01:18:06;;;;;;;16.17;14.57;;;;;;;21.46;69.76;101155.19;665648;29;1692;-93
2022/07/21 01:18:28;;;;;;;16.02;14.43;;;;;;;21.47;69.91;101150.78;666643;29;1323;-92
2022/07/21 01:18:49;;;;;;;16.42;14.73;;;;;;;21.51;69.80;101157.81;666438;29;1217;-94
2022/07/21 01:19:11;;;;;;;15.93;14.23;;;;;;;21.48;69.74;101155.19;669510;29;1335;-94
2022/07/21 01:19:31;;;;;;;15.57;13.98;;;;;;;21.53;69.67;101164.00;668532;29;2007;-92
2022/07/21 01:19:53;;;;;;;16.20;14.05;;;;;;;21.52;69.78;101166.69;669289;29;1185;-92
2022/07/21 01:20:16;;;;;;;15.55;13.93;;;;;;;21.56;69.64;101174.59;668915;29;2020;-92
2022/07/21 01:20:41;;;;;;;15.48;13.77;;;;;;;21.52;69.75;101162.25;671512;29;1680;-93
2022/07/21 01:21:07;;;;;;;16.00;14.30;;;;;;;21.53;69.80;101168.44;664697;29;1662;-92
2022/07/21 01:21:33;;;;;;;16.83;14.80;;;;;;;21.45;69.79;101155.22;669038;29;1533;-93
2022/07/21 01:21:53;;;;;;;16.20;14.30;;;;;;;21.48;69.84;101171.09;666894;29;1385;-93
2022/07/21 01:22:14;;;;;;;15.70;14.00;;;;;;;21.54;70.04;101176.38;666956;29;1720;-92
2022/07/21 01:22:38;;;;;;;16.23;14.50;;;;;;;21.52;69.67;101172.88;663354;29;1635;-92
2022/07/21 01:22:58;;;;;;;16.17;14.48;;;;;;;21.46;69.74;101162.28;666980;29;1335;-92
2022/07/21 01:23:21;;;;;;;16.13;14.40;;;;;;;21.49;69.81;101162.28;665939;29;1698;-92
2022/07/21 01:23:41;;;;;;;16.45;14.75;;;;;;;21.54;69.89;101171.06;666321;29;1686;-93
2022/07/21 01:24:03;;;;;;;16.40;14.70;;;;;;;21.56;69.67;101179.91;671082;29;1685;-94
2022/07/21 01:24:24;;;;;;;16.92;15.13;;;;;;;21.54;69.97;101173.72;668905;29;1728;-93
2022/07/21 01:24:44;;;;;;;16.50;14.80;;;;;;;21.58;69.78;101178.09;667276;29;1416;-94
2022/07/21 01:25:06;;;;;;;16.60;15.00;;;;;;;21.58;69.66;101177.22;667051;29;1430;-94
2022/07/21 01:25:27;;;;;;;17.13;15.48;;;;;;;21.57;69.57;101176.34;664643;29;1359;-94
2022/07/21 01:25:49;;;;;;;18.13;16.33;;;;;;;21.54;69.87;101168.41;664128;29;1369;-93
2022/07/21 01:26:10;;;;;;;18.08;16.20;;;;;;;21.53;69.67;101161.34;667103;29;1295;-93
2022/07/21 01:26:38;;;;;;;17.10;15.27;;;;;;;21.49;69.79;101168.47;665984;29;1727;-92
2022/07/21 01:26:59;;;;;;;17.00;15.00;;;;;;;21.55;69.82;101169.28;669368;29;1677;-95
2022/07/21 01:27:25;;;;;;;17.77;15.18;;;;;;;21.60;69.87;101181.63;666435;29;1475;-93
2022/07/21 01:27:46;;;;;;;17.98;15.43;;;;;;;21.55;69.75;101170.19;666753;29;1525;-94
2022/07/21 01:28:06;;;;;;;18.35;15.63;;;;;;;21.51;69.58;101171.09;669713;29;1185;-94
2022/07/21 01:28:27;;;;;;;16.73;14.93;;;;;;;21.52;70.03;101167.56;666722;29;1844;-94
2022/07/21 01:28:48;;;;;;;16.23;14.52;;;;;;;21.51;69.75;101179.06;666796;29;1378;-93
2022/07/21 01:29:10;;;;;;;16.20;14.50;;;;;;;21.50;69.86;101167.59;670066;29;1278;-94
2022/07/21 01:29:30;;;;;;;16.67;14.82;;;;;;;21.48;70.00;101172.00;668502;29;1782;-93
2022/07/21 01:29:51;;;;;;;18.08;15.07;;;;;;;21.47;70.00;101164.03;664211;29;1269;-94
2022/07/21 01:30:13;;;;;;;18.27;15.00;;;;;;;21.53;70.20;101179.06;664524;29;1227;-94
2022/07/21 01:30:34;;;;;;;17.25;15.40;;;;;;;21.49;69.95;101168.47;669483;29;1556;-94
2022/07/21 01:30:54;;;;;;;17.07;15.27;;;;;;;21.44;70.12;101169.38;668936;29;1328;-94
2022/07/21 01:31:15;;;;;;;17.08;15.25;;;;;;;21.43;70.16;101168.50;670535;29;1917;-93
2022/07/21 01:31:36;;;;;;;17.53;15.10;;;;;;;21.41;69.91;101162.34;670123;29;1645;-94
2022/07/21 01:31:57;;;;;;;18.27;15.85;;;;;;;21.46;69.92;101164.94;668974;29;1821;-94
2022/07/21 01:32:18;;;;;;;17.85;15.90;;;;;;;21.48;69.93;101165.78;661894;29;1192;-93
2022/07/21 01:32:40;;;;;;;17.55;15.65;;;;;;;21.51;70.05;101171.09;664362;29;1276;-93
2022/07/21 01:33:00;;;;;;;16.55;14.85;;;;;;;21.46;69.95;101162.28;666944;29;1138;-93
2022/07/21 01:33:21;;;;;;;16.60;14.80;;;;;;;21.48;70.08;101165.78;669023;29;1647;-94
2022/07/21 01:33:42;;;;;;;16.75;14.95;;;;;;;21.47;69.92;101164.91;668442;29;1172;-94
2022/07/21 01:34:02;;;;;;;17.47;15.57;;;;;;;21.48;70.04;101165.78;666084;29;1141;-93
2022/07/21 01:34:23;;;;;;;17.67;15.63;;;;;;;21.49;70.20;101162.28;666538;29;1552;-93
2022/07/21 01:34:44;;;;;;;18.02;15.85;;;;;;;21.48;70.03;101158.72;664319;29;1183;-92
2022/07/21 01:35:06;;;;;;;17.45;15.60;;;;;;;21.47;69.99;101162.25;666971;29;1185;-93
2022/07/21 01:35:27;;;;;;;17.40;15.60;;;;;;;21.47;70.24;101164.03;668873;29;1722;-95
2022/07/21 01:35:49;;;;;;;17.33;15.52;;;;;;;21.42;70.14;101155.25;671229;29;1298;-95
2022/07/21 01:36:10;;;;;;;17.38;15.45;;;;;;;21.49;70.06;101168.47;669669;29;1736;-94
2022/07/21 01:36:31;;;;;;;18.10;15.93;;;;;;;21.46;70.31;101164.94;663973;29;1160;-94
2022/07/21 01:36:51;;;;;;;17.83;15.93;;;;;;;21.46;70.25;101167.59;672049;29;1223;-93
2022/07/21 01:37:13;;;;;;;18.10;16.00;;;;;;;21.50;69.91;101172.00;670917;29;1206;-92
2022/07/21 01:37:37;;;;;;;17.83;15.93;;;;;;;21.38;70.16;101159.72;666187;29;1600;-91
2022/07/21 01:37:59;;;;;;;17.38;15.57;;;;;;;21.47;70.42;101169.34;666021;29;1711;-95
2022/07/21 01:41:38;;;;;;;17.60;15.15;;;;;;;21.43;70.39;101165.84;667643;29;1958;-92
2022/07/21 01:41:59;;;;;;;17.52;15.63;;;;;;;21.40;70.25;101163.25;664355;29;1216;-91
2022/07/21 01:42:20;;;;;;;17.35;15.40;;;;;;;21.43;70.25;101162.31;664585;29;1267;-92
2022/07/21 01:42:40;;;;;;;19.13;15.95;;;;;;;21.43;70.47;101165.84;667376;29;1206;-91
2022/07/21 01:43:02;;;;;;;18.77;15.23;;;;;;;21.40;70.33;101160.59;667244;29;1189;-92
2022/07/21 01:43:23;;;;;;;19.92;15.48;;;;;;;21.36;70.51;101154.44;669820;29;1385;-91
2022/07/21 01:43:43;;;;;;;19.58;15.70;;;;;;;21.40;70.25;101162.34;670746;29;1174;-91
2022/07/21 01:44:07;;;;;;;20.70;16.20;;;;;;;21.40;70.43;101163.25;670096;29;1278;-92
2022/07/21 01:44:28;;;;;;;19.50;16.70;;;;;;;21.38;70.40;101159.72;664644;29;1401;-92